Terminal Aerodrome Forecast
Issued by NWS

Home | Current Version | Previous Version | Text Only | Print | Product List | Glossary On
Versions: 1 2 3 4 5 6 7 8 9 10 11 12 13 14 15 16 17
000
FTAK31 PAJN 201120
TAFAWG
TAF
PAWG 201120Z 2012/2112 10008KT P6SM VCSH BKN050
     FM210000 13008KT P6SM -SHRA SCT025 BKN040 OVC050
     FM210900 20005KT 6SM -SHRA BKN025 OVC040
      AMD LTD TO CLD VIS AND WIND 2012/2015=

USA.gov is the U.S. government's official web portal to all federal, state and local government web resources and services.